createdAt,value
2022-09-14T00:00:00.328Z,0.00
2022-09-14T00:01:23.671Z,0.00
2022-09-14T00:02:01.339Z,0.00
2022-09-14T00:03:00.405Z,0.00
2022-09-14T00:04:00.263Z,0.00
2022-09-14T00:05:00.246Z,0.00
2022-09-14T00:06:00.258Z,0.00
2022-09-14T00:07:00.217Z,0.00
2022-09-14T00:08:00.207Z,0.00
2022-09-14T00:09:00.228Z,0.00
2022-09-14T00:10:00.192Z,0.00
2022-09-14T00:11:00.178Z,0.00
2022-09-14T00:12:00.198Z,0.00
2022-09-14T00:13:00.158Z,0.00
2022-09-14T00:14:00.140Z,0.00
2022-09-14T00:15:00.134Z,0.00
2022-09-14T00:16:00.119Z,0.00
2022-09-14T00:17:00.252Z,0.00
2022-09-14T00:18:00.137Z,0.00
2022-09-14T00:19:00.090Z,0.00
2022-09-14T00:20:00.080Z,0.00
2022-09-14T00:21:00.080Z,0.00
2022-09-14T00:22:00.059Z,0.00
2022-09-14T00:23:00.052Z,0.00
2022-09-14T00:24:00.090Z,0.00
2022-09-14T00:25:00.030Z,0.00
2022-09-14T00:26:00.023Z,0.00
2022-09-14T00:27:00.018Z,0.00
2022-09-14T00:27:59.991Z,0.00
2022-09-14T00:28:59.991Z,0.00
2022-09-14T00:30:00.012Z,0.00
2022-09-14T00:30:59.971Z,0.00
2022-09-14T00:32:00.060Z,0.00
2022-09-14T00:32:59.953Z,0.00
2022-09-14T00:33:59.934Z,0.00
2022-09-14T00:34:59.922Z,0.00
2022-09-14T00:35:59.944Z,0.00
2022-09-14T00:36:59.909Z,0.00
2022-09-14T00:37:59.893Z,0.00
2022-09-14T00:38:59.885Z,0.00
2022-09-14T00:39:59.920Z,0.00
2022-09-14T00:40:59.863Z,0.00
2022-09-14T00:41:59.885Z,0.00
2022-09-14T00:42:59.837Z,0.00
2022-09-14T00:43:59.836Z,0.00
2022-09-14T00:44:59.815Z,0.00
2022-09-14T00:45:59.832Z,0.00
2022-09-14T00:46:59.813Z,0.00
2022-09-14T00:47:59.818Z,0.00
2022-09-14T00:48:59.775Z,0.00
2022-09-14T00:49:59.773Z,0.00
2022-09-14T00:50:59.764Z,0.00
2022-09-14T00:51:59.754Z,0.00
2022-09-14T00:52:59.737Z,0.00
2022-09-14T00:53:59.758Z,0.00
2022-09-14T00:54:59.717Z,0.00
2022-09-14T00:55:59.706Z,0.00
2022-09-14T00:56:59.696Z,0.00
2022-09-14T00:57:59.687Z,0.00
2022-09-14T00:58:59.668Z,0.00
2022-09-14T00:59:59.689Z,0.00
2022-09-14T01:00:59.709Z,0.00
2022-09-14T01:01:59.704Z,0.00
2022-09-14T01:02:59.630Z,0.00
2022-09-14T01:03:59.631Z,0.00
2022-09-14T01:04:59.618Z,0.00
2022-09-14T01:05:59.629Z,0.00
2022-09-14T01:06:59.598Z,0.00
2022-09-14T01:07:59.588Z,0.00
2022-09-14T01:08:59.560Z,0.00
2022-09-14T01:09:59.560Z,0.00
2022-09-14T01:10:59.548Z,0.00
2022-09-14T01:11:59.574Z,0.00
2022-09-14T01:12:59.529Z,0.00
2022-09-14T01:13:59.522Z,0.00
2022-09-14T01:14:59.507Z,0.00
2022-09-14T01:15:59.579Z,0.00
2022-09-14T01:16:59.482Z,0.00
2022-09-14T01:17:59.520Z,0.00
2022-09-14T01:18:59.466Z,0.00
2022-09-14T01:19:59.462Z,0.00
2022-09-14T01:20:59.441Z,0.00
2022-09-14T01:21:59.433Z,0.00
2022-09-14T01:22:59.423Z,0.00
2022-09-14T01:23:59.456Z,0.00
2022-09-14T01:24:59.404Z,0.00
2022-09-14T01:25:59.395Z,0.00
2022-09-14T01:26:59.374Z,0.00
2022-09-14T01:27:59.375Z,0.00
2022-09-14T01:28:59.364Z,0.00
2022-09-14T01:29:59.377Z,0.00
2022-09-14T01:30:59.346Z,0.00
2022-09-14T01:31:59.397Z,0.00
2022-09-14T01:32:59.317Z,0.00
2022-09-14T01:33:59.306Z,0.00
2022-09-14T01:34:59.297Z,0.00
2022-09-14T01:35:59.316Z,0.00
2022-09-14T01:36:59.276Z,0.00
2022-09-14T01:37:59.267Z,0.00
2022-09-14T01:38:59.248Z,0.00
2022-09-14T01:39:59.285Z,0.00
2022-09-14T01:40:59.227Z,0.00
2022-09-14T01:41:59.714Z,0.00
2022-09-14T01:42:59.217Z,0.00
2022-09-14T01:43:59.210Z,0.00
2022-09-14T01:45:02.918Z,0.00
2022-09-14T01:45:59.232Z,0.00
2022-09-14T01:46:59.170Z,0.00
2022-09-14T01:47:59.187Z,0.00
2022-09-14T01:48:59.153Z,0.00
2022-09-14T01:49:59.140Z,0.00
2022-09-14T01:50:59.131Z,0.00
2022-09-14T01:51:59.119Z,0.00
2022-09-14T01:52:59.102Z,0.00
2022-09-14T01:53:59.119Z,0.00
2022-09-14T01:54:59.083Z,0.00
2022-09-14T01:55:59.075Z,0.00
2022-09-14T01:56:59.063Z,0.00
2022-09-14T01:57:59.059Z,0.00
2022-09-14T01:58:59.049Z,0.00
2022-09-14T01:59:59.063Z,0.00
2022-09-14T02:00:59.070Z,0.00
2022-09-14T02:01:59.073Z,0.00
2022-09-14T02:02:59.012Z,0.00
2022-09-14T02:03:58.994Z,0.00
2022-09-14T02:04:58.984Z,0.00
2022-09-14T02:05:58.995Z,0.00
2022-09-14T02:06:58.957Z,0.00
2022-09-14T02:07:58.950Z,0.00
2022-09-14T02:08:58.942Z,0.00
2022-09-14T02:09:58.941Z,0.00
2022-09-14T02:10:58.916Z,0.00
2022-09-14T02:11:58.935Z,0.00
2022-09-14T02:12:58.905Z,0.00
2022-09-14T02:13:58.890Z,0.00
2022-09-14T02:14:58.878Z,0.00
2022-09-14T02:15:58.933Z,0.00
2022-09-14T02:16:58.864Z,0.00
2022-09-14T02:17:58.880Z,0.00
2022-09-14T02:18:58.836Z,0.00
2022-09-14T02:19:58.827Z,0.00
2022-09-14T02:20:58.814Z,0.00
2022-09-14T02:21:58.807Z,0.00
2022-09-14T02:22:58.798Z,0.00
2022-09-14T02:23:58.807Z,0.00
2022-09-14T02:24:58.777Z,0.00
2022-09-14T02:25:58.768Z,0.00
2022-09-14T02:26:58.756Z,0.00
2022-09-14T02:27:58.746Z,0.00
2022-09-14T02:28:58.728Z,0.00
2022-09-14T02:29:58.758Z,0.00
2022-09-14T02:30:58.710Z,0.00
2022-09-14T02:31:58.703Z,0.00
2022-09-14T02:32:58.692Z,0.00
2022-09-14T02:33:58.680Z,0.00
2022-09-14T02:34:58.677Z,0.00
2022-09-14T02:35:58.681Z,0.00
2022-09-14T02:36:58.651Z,0.00
2022-09-14T02:37:58.643Z,0.00
2022-09-14T02:38:58.632Z,0.00
2022-09-14T02:39:58.706Z,0.00
2022-09-14T02:40:58.611Z,0.00
2022-09-14T02:41:58.632Z,0.00
2022-09-14T02:42:58.583Z,0.00
2022-09-14T02:43:58.574Z,0.00
2022-09-14T02:44:58.564Z,0.00
2022-09-14T02:45:58.551Z,0.00
2022-09-14T02:46:58.623Z,0.00
2022-09-14T02:47:58.575Z,0.00
2022-09-14T02:48:58.527Z,0.00
2022-09-14T02:49:58.510Z,0.00
2022-09-14T02:50:58.494Z,0.00
2022-09-14T02:51:58.496Z,0.00
2022-09-14T02:52:58.475Z,0.00
2022-09-14T02:53:58.505Z,0.00
2022-09-14T02:54:58.466Z,0.00
2022-09-14T02:55:58.455Z,0.00
2022-09-14T02:56:58.438Z,0.00
2022-09-14T02:57:58.435Z,0.00
2022-09-14T02:58:58.431Z,0.00
2022-09-14T02:59:58.446Z,0.00
2022-09-14T03:00:58.459Z,0.00
2022-09-14T03:01:58.398Z,0.00
2022-09-14T03:02:58.368Z,0.00
2022-09-14T03:03:58.370Z,0.00
2022-09-14T03:04:58.356Z,0.00
2022-09-14T03:05:58.387Z,0.00
2022-09-14T03:06:58.336Z,0.00
2022-09-14T03:07:58.324Z,0.00
2022-09-14T03:08:58.307Z,0.00
2022-09-14T03:09:58.304Z,0.00
2022-09-14T03:10:58.288Z,0.00
2022-09-14T03:11:58.309Z,0.00
2022-09-14T03:12:58.272Z,0.00
2022-09-14T03:13:58.265Z,0.00
2022-09-14T03:14:58.249Z,0.00
2022-09-14T03:15:58.416Z,0.00
2022-09-14T03:16:58.229Z,0.00
2022-09-14T03:17:58.252Z,0.00
2022-09-14T03:18:58.211Z,0.00
2022-09-14T03:19:58.200Z,0.00
2022-09-14T03:20:58.180Z,0.00
2022-09-14T03:21:58.181Z,0.00
2022-09-14T03:22:58.161Z,0.00
2022-09-14T03:23:58.182Z,0.00
2022-09-14T03:24:58.143Z,0.00
2022-09-14T03:25:58.142Z,0.00
2022-09-14T03:26:58.132Z,0.00
2022-09-14T03:27:58.120Z,0.00
2022-09-14T03:28:58.102Z,0.00
2022-09-14T03:29:58.130Z,0.00
2022-09-14T03:30:58.120Z,0.00
2022-09-14T03:31:58.078Z,0.00
2022-09-14T03:32:58.062Z,0.00
2022-09-14T03:33:58.054Z,0.00
2022-09-14T03:34:58.035Z,0.00
2022-09-14T03:35:58.075Z,0.00
2022-09-14T03:36:58.013Z,0.00
2022-09-14T03:37:58.016Z,0.00
2022-09-14T03:38:57.996Z,0.00
2022-09-14T03:39:58.043Z,0.00
2022-09-14T03:40:57.993Z,0.00
2022-09-14T03:41:58.014Z,0.00
2022-09-14T03:42:57.956Z,0.00
2022-09-14T03:43:57.957Z,0.00
2022-09-14T03:44:57.937Z,0.00
2022-09-14T03:45:57.940Z,0.00
2022-09-14T03:46:57.996Z,0.00
2022-09-14T03:47:57.947Z,0.00
2022-09-14T03:48:57.897Z,0.00
2022-09-14T03:49:57.878Z,0.00
2022-09-14T03:50:57.878Z,0.00
2022-09-14T03:51:59.938Z,0.00
2022-09-14T03:52:57.851Z,0.00
2022-09-14T03:53:57.888Z,0.00
2022-09-14T03:54:57.829Z,0.00
2022-09-14T03:55:57.828Z,0.00
2022-09-14T03:56:57.810Z,0.00
2022-09-14T03:57:57.802Z,0.00
2022-09-14T03:58:57.799Z,0.00
2022-09-14T03:59:57.820Z,0.00
2022-09-14T04:00:57.770Z,0.00
2022-09-14T04:01:57.834Z,0.00
2022-09-14T04:02:57.770Z,0.00
2022-09-14T04:03:57.743Z,0.00
2022-09-14T04:04:57.732Z,0.00
2022-09-14T04:05:57.753Z,0.00
2022-09-14T04:06:57.703Z,0.00
2022-09-14T04:07:57.706Z,0.00
2022-09-14T04:08:57.683Z,0.00
2022-09-14T04:09:57.682Z,0.00
2022-09-14T04:10:57.672Z,0.00
2022-09-14T04:11:57.683Z,0.00
2022-09-14T04:12:57.643Z,0.00
2022-09-14T04:13:57.642Z,0.00
2022-09-14T04:14:57.623Z,0.00
2022-09-14T04:15:57.677Z,0.00
2022-09-14T04:16:57.605Z,0.00
2022-09-14T04:17:57.624Z,0.00
2022-09-14T04:18:57.543Z,0.00
2022-09-14T04:19:57.531Z,0.00
2022-09-14T04:20:57.514Z,0.00
2022-09-14T04:21:57.504Z,0.00
2022-09-14T04:22:57.487Z,0.00
2022-09-14T04:24:13.919Z,0.00
2022-09-14T04:24:58.468Z,0.00
2022-09-14T04:25:57.456Z,0.00
2022-09-14T04:26:57.497Z,0.00
2022-09-14T04:28:19.226Z,0.00
2022-09-14T04:28:58.448Z,0.00
2022-09-14T04:29:57.425Z,0.00
2022-09-14T04:30:57.439Z,0.00
2022-09-14T04:31:57.397Z,0.00
2022-09-14T04:32:57.472Z,0.00
2022-09-14T04:33:57.502Z,0.00
2022-09-14T04:34:57.397Z,0.00
2022-09-14T04:35:57.363Z,0.00
2022-09-14T04:36:57.346Z,0.00
2022-09-14T04:37:57.337Z,0.00
2022-09-14T04:38:57.319Z,0.00
2022-09-14T04:39:57.375Z,0.00
2022-09-14T04:40:57.330Z,0.00
2022-09-14T04:41:57.291Z,0.00
2022-09-14T04:42:57.279Z,0.00
2022-09-14T04:43:57.271Z,0.00
2022-09-14T04:44:57.260Z,0.00
2022-09-14T04:45:57.252Z,0.00
2022-09-14T04:46:57.316Z,0.00
2022-09-14T04:47:57.221Z,0.00
2022-09-14T04:48:57.218Z,0.00
2022-09-14T04:49:57.232Z,0.00
2022-09-14T04:50:57.199Z,0.00
2022-09-14T04:51:57.191Z,0.00
2022-09-14T04:52:57.197Z,0.00
2022-09-14T04:53:57.172Z,0.00
2022-09-14T04:54:57.155Z,0.00
2022-09-14T04:55:57.141Z,0.00
2022-09-14T04:56:57.133Z,0.00
2022-09-14T04:57:57.123Z,0.00
2022-09-14T04:58:57.160Z,0.00
2022-09-14T04:59:57.095Z,0.00
2022-09-14T05:00:57.094Z,0.00
2022-09-14T05:01:57.115Z,0.00
2022-09-14T05:02:57.100Z,0.00
2022-09-14T05:03:57.055Z,0.00
2022-09-14T05:04:57.088Z,0.00
2022-09-14T05:05:57.037Z,0.00
2022-09-14T05:06:57.037Z,0.00
2022-09-14T05:07:57.018Z,0.00
2022-09-14T05:08:57.013Z,0.00
2022-09-14T05:09:56.997Z,0.00
2022-09-14T05:10:57.019Z,0.00
2022-09-14T05:11:56.979Z,0.00
2022-09-14T05:12:56.967Z,0.00
2022-09-14T05:13:56.948Z,0.00
2022-09-14T05:14:56.956Z,0.00
2022-09-14T05:15:56.991Z,0.00
2022-09-14T05:16:56.957Z,0.00
2022-09-14T05:17:56.909Z,0.00
2022-09-14T05:18:56.908Z,0.00
2022-09-14T05:19:56.897Z,0.00
2022-09-14T05:20:56.880Z,0.00
2022-09-14T05:21:56.874Z,0.00
2022-09-14T05:22:56.899Z,0.00
2022-09-14T05:23:56.848Z,0.00
2022-09-14T05:24:56.838Z,0.00
2022-09-14T05:25:56.830Z,0.00
2022-09-14T05:27:00.479Z,0.00
2022-09-14T05:27:56.811Z,0.00
2022-09-14T05:28:56.831Z,0.00
2022-09-14T05:29:56.788Z,0.00
2022-09-14T05:30:56.814Z,5.62
2022-09-14T05:31:56.772Z,0.00
2022-09-14T05:32:58.172Z,0.00
2022-09-14T05:33:56.769Z,0.00
2022-09-14T05:34:56.783Z,5.62
2022-09-14T05:35:56.731Z,5.62
2022-09-14T05:36:56.714Z,5.62
2022-09-14T05:37:56.709Z,5.62
2022-09-14T05:38:56.704Z,5.62
2022-09-14T05:39:56.721Z,5.62
2022-09-14T05:40:56.707Z,5.62
2022-09-14T05:41:56.665Z,5.62
2022-09-14T05:42:56.662Z,5.62
2022-09-14T05:43:56.644Z,5.62
2022-09-14T05:44:56.635Z,5.62
2022-09-14T05:45:56.696Z,5.62
2022-09-14T05:46:56.645Z,5.62
2022-09-14T05:47:56.596Z,5.62
2022-09-14T05:48:56.596Z,5.62
2022-09-14T05:49:56.586Z,5.62
2022-09-14T05:50:56.576Z,5.62
2022-09-14T05:51:56.558Z,11.25
2022-09-14T05:52:56.577Z,11.25
2022-09-14T05:53:56.540Z,11.25
2022-09-14T05:54:56.527Z,11.25
2022-09-14T05:55:56.519Z,11.25
2022-09-14T05:56:56.510Z,11.25
2022-09-14T05:57:56.500Z,11.25
2022-09-14T05:58:56.519Z,11.25
2022-09-14T05:59:56.478Z,11.25
2022-09-14T06:00:56.469Z,11.25
2022-09-14T06:01:56.530Z,11.25
2022-09-14T06:02:56.451Z,11.25
2022-09-14T06:03:56.440Z,11.25
2022-09-14T06:04:56.508Z,11.25
2022-09-14T06:05:56.420Z,11.25
2022-09-14T06:07:17.488Z,11.25
2022-09-14T06:07:57.391Z,11.25
2022-09-14T06:08:56.386Z,11.25
2022-09-14T06:09:56.374Z,11.25
2022-09-14T06:10:56.403Z,11.25
2022-09-14T06:11:56.352Z,16.88
2022-09-14T06:12:56.343Z,11.25
2022-09-14T06:13:56.337Z,16.88
2022-09-14T06:14:56.329Z,11.25
2022-09-14T06:15:56.310Z,16.88
2022-09-14T06:16:56.330Z,16.88
2022-09-14T06:17:56.290Z,16.88
2022-09-14T06:18:56.284Z,16.88
2022-09-14T06:19:56.263Z,16.88
2022-09-14T06:20:56.265Z,16.88
2022-09-14T06:21:56.245Z,16.88
2022-09-14T06:22:56.264Z,22.50
2022-09-14T06:23:56.226Z,22.50
2022-09-14T06:24:56.215Z,16.88
2022-09-14T06:25:56.214Z,16.88
2022-09-14T06:26:56.202Z,22.50
2022-09-14T06:27:56.185Z,22.50
2022-09-14T06:28:56.217Z,16.88
2022-09-14T06:29:56.156Z,16.88
2022-09-14T06:30:56.156Z,16.88
2022-09-14T06:31:56.146Z,22.50
2022-09-14T06:32:56.137Z,22.50
2022-09-14T06:33:56.123Z,22.50
2022-09-14T06:34:56.147Z,22.50
2022-09-14T06:35:56.099Z,22.50
2022-09-14T06:36:56.089Z,22.50
2022-09-14T06:37:56.079Z,22.50
2022-09-14T06:38:56.070Z,22.50
2022-09-14T06:39:56.181Z,22.50
2022-09-14T06:40:56.080Z,22.50
2022-09-14T06:41:56.041Z,22.50
2022-09-14T06:42:56.038Z,22.50
2022-09-14T06:43:56.018Z,22.50
2022-09-14T06:44:56.020Z,22.50
2022-09-14T06:45:56.002Z,22.50
2022-09-14T06:46:56.032Z,22.50
2022-09-14T06:47:55.981Z,22.50
2022-09-14T06:48:55.973Z,22.50
2022-09-14T06:49:55.951Z,28.12
2022-09-14T06:50:55.952Z,28.12
2022-09-14T06:51:55.932Z,28.12
2022-09-14T06:52:55.953Z,33.75
2022-09-14T06:53:55.912Z,28.12
2022-09-14T06:54:55.902Z,33.75
2022-09-14T06:55:55.894Z,33.75
2022-09-14T06:56:55.884Z,33.75
2022-09-14T06:57:55.874Z,39.38
2022-09-14T06:58:55.893Z,39.38
2022-09-14T06:59:55.851Z,39.38
2022-09-14T07:00:55.844Z,50.62
2022-09-14T07:01:55.826Z,39.38
2022-09-14T07:02:55.931Z,39.38
2022-09-14T07:03:55.806Z,33.75
2022-09-14T07:04:55.856Z,33.75
2022-09-14T07:05:55.785Z,33.75
2022-09-14T07:06:55.776Z,39.38
2022-09-14T07:07:55.767Z,33.75
2022-09-14T07:08:55.758Z,45.00
2022-09-14T07:09:55.745Z,45.00
2022-09-14T07:10:55.761Z,50.62
2022-09-14T07:11:55.719Z,50.62
2022-09-14T07:12:55.717Z,56.25
2022-09-14T07:13:55.710Z,67.50
2022-09-14T07:14:55.706Z,39.38
2022-09-14T07:15:55.687Z,39.38
2022-09-14T07:16:55.701Z,33.75
2022-09-14T07:17:55.662Z,28.12
2022-09-14T07:18:55.654Z,28.12
2022-09-14T07:19:55.647Z,28.12
2022-09-14T07:20:55.630Z,28.12
2022-09-14T07:21:55.630Z,28.12
2022-09-14T07:22:55.640Z,28.12
2022-09-14T07:23:55.616Z,33.75
2022-09-14T07:24:55.593Z,33.75
2022-09-14T07:25:55.581Z,33.75
2022-09-14T07:26:55.571Z,33.75
2022-09-14T07:27:55.552Z,28.12
2022-09-14T07:28:55.582Z,22.50
2022-09-14T07:29:55.541Z,22.50
2022-09-14T07:30:58.917Z,22.50
2022-09-14T07:31:55.515Z,22.50
2022-09-14T07:32:55.506Z,22.50
2022-09-14T07:33:55.496Z,22.50
2022-09-14T07:34:55.512Z,22.50
2022-09-14T07:35:55.476Z,22.50
2022-09-14T07:36:55.466Z,22.50
2022-09-14T07:37:55.456Z,28.12
2022-09-14T07:38:55.445Z,28.12
2022-09-14T07:39:55.489Z,28.12
2022-09-14T07:40:55.457Z,33.75
2022-09-14T07:41:55.413Z,33.75
2022-09-14T07:42:57.659Z,39.38
2022-09-14T07:43:55.387Z,33.75
2022-09-14T07:44:55.377Z,33.75
2022-09-14T07:45:55.423Z,28.12
2022-09-14T07:46:55.391Z,22.50
2022-09-14T07:47:55.357Z,22.50
2022-09-14T07:48:55.347Z,22.50
2022-09-14T07:49:55.326Z,22.50
2022-09-14T07:50:55.321Z,22.50
2022-09-14T07:51:55.309Z,28.12
2022-09-14T07:52:55.341Z,28.12
2022-09-14T07:53:55.291Z,28.12
2022-09-14T07:54:55.277Z,22.50
2022-09-14T07:55:55.261Z,22.50
2022-09-14T07:56:55.254Z,22.50
2022-09-14T07:57:56.780Z,22.50
2022-09-14T07:59:03.308Z,22.50
2022-09-14T07:59:56.222Z,22.50
2022-09-14T08:00:55.213Z,22.50
2022-09-14T08:01:55.312Z,22.50
2022-09-14T08:02:55.369Z,22.50
2022-09-14T08:03:55.182Z,22.50
2022-09-14T08:04:55.203Z,22.50
2022-09-14T08:05:55.154Z,22.50
2022-09-14T08:06:55.147Z,22.50
2022-09-14T08:07:55.134Z,22.50
2022-09-14T08:08:55.154Z,22.50
2022-09-14T08:09:55.113Z,22.50
2022-09-14T08:10:55.145Z,22.50
2022-09-14T08:11:55.092Z,22.50
2022-09-14T08:12:55.083Z,22.50
2022-09-14T08:13:55.066Z,22.50
2022-09-14T08:14:55.066Z,22.50
2022-09-14T08:15:55.054Z,22.50
2022-09-14T08:16:55.139Z,28.12
2022-09-14T08:17:55.027Z,33.75
2022-09-14T08:18:55.016Z,33.75
2022-09-14T08:19:55.005Z,33.75
2022-09-14T08:20:54.988Z,28.12
2022-09-14T08:21:54.981Z,28.12
2022-09-14T08:22:54.999Z,28.12
2022-09-14T08:23:54.960Z,33.75
2022-09-14T08:24:54.951Z,33.75
2022-09-14T08:25:54.938Z,33.75
2022-09-14T08:26:54.931Z,33.75
2022-09-14T08:27:54.916Z,33.75
2022-09-14T08:28:54.937Z,33.75
2022-09-14T08:29:54.888Z,33.75
2022-09-14T08:30:54.889Z,33.75
2022-09-14T08:31:54.964Z,33.75
2022-09-14T08:32:57.066Z,33.75
2022-09-14T08:33:55.880Z,33.75
2022-09-14T08:34:54.842Z,33.75
2022-09-14T08:35:57.877Z,33.75
2022-09-14T08:36:54.823Z,33.75
2022-09-14T08:37:54.817Z,39.38
2022-09-14T08:38:54.803Z,39.38
2022-09-14T08:39:54.840Z,33.75
2022-09-14T08:40:54.773Z,33.75
2022-09-14T08:41:54.766Z,28.12
2022-09-14T08:42:54.764Z,33.75
2022-09-14T08:43:54.745Z,33.75
2022-09-14T08:44:54.736Z,33.75
2022-09-14T08:45:54.799Z,33.75
2022-09-14T08:46:54.716Z,33.75
2022-09-14T08:47:54.706Z,39.38
2022-09-14T08:48:54.702Z,39.38
2022-09-14T08:49:54.684Z,39.38
2022-09-14T08:50:54.676Z,33.75
2022-09-14T08:51:54.689Z,33.75
2022-09-14T08:52:54.648Z,28.12
2022-09-14T08:53:54.640Z,28.12
2022-09-14T08:54:54.629Z,28.12
2022-09-14T08:55:54.620Z,28.12
2022-09-14T08:56:54.609Z,33.75
2022-09-14T08:57:54.635Z,39.38
2022-09-14T08:58:54.721Z,39.38
2022-09-14T08:59:54.569Z,39.38
2022-09-14T09:00:54.631Z,39.38
2022-09-14T09:01:54.557Z,39.38
2022-09-14T09:02:54.553Z,39.38
2022-09-14T09:03:54.706Z,39.38
2022-09-14T09:04:54.550Z,39.38
2022-09-14T09:05:54.540Z,33.75
2022-09-14T09:06:54.511Z,28.12
2022-09-14T09:07:54.491Z,33.75
2022-09-14T09:08:54.481Z,28.12
2022-09-14T09:09:54.504Z,28.12
2022-09-14T09:10:54.463Z,22.50
2022-09-14T09:11:54.455Z,22.50
2022-09-14T09:12:54.454Z,28.12
2022-09-14T09:13:54.425Z,28.12
2022-09-14T09:14:54.422Z,39.38
2022-09-14T09:15:54.468Z,39.38
2022-09-14T09:16:54.394Z,39.38
2022-09-14T09:17:54.396Z,39.38
2022-09-14T09:18:54.448Z,45.00
2022-09-14T09:19:54.370Z,45.00
2022-09-14T09:20:54.347Z,45.00
2022-09-14T09:21:54.378Z,45.00
2022-09-14T09:22:54.338Z,45.00
2022-09-14T09:23:54.326Z,39.38
2022-09-14T09:24:54.319Z,39.38
2022-09-14T09:25:54.308Z,39.38
2022-09-14T09:26:54.296Z,33.75
2022-09-14T09:27:54.318Z,28.12
2022-09-14T09:28:54.281Z,28.12
2022-09-14T09:29:54.259Z,28.12
2022-09-14T09:30:54.249Z,33.75
2022-09-14T09:31:54.306Z,39.38
2022-09-14T09:32:54.230Z,39.38
2022-09-14T09:33:54.255Z,45.00
2022-09-14T09:34:54.210Z,45.00
2022-09-14T09:35:54.202Z,45.00
2022-09-14T09:36:54.194Z,39.38
2022-09-14T09:37:54.182Z,39.38
2022-09-14T09:38:54.174Z,39.38
2022-09-14T09:39:54.264Z,39.38
2022-09-14T09:40:54.149Z,45.00
2022-09-14T09:41:54.143Z,45.00
2022-09-14T09:42:54.123Z,45.00
2022-09-14T09:43:54.123Z,45.00
2022-09-14T09:44:56.936Z,56.25
2022-09-14T09:45:55.125Z,61.88
2022-09-14T09:46:54.145Z,61.88
2022-09-14T09:47:54.076Z,61.88
2022-09-14T09:48:54.076Z,61.88
2022-09-14T09:49:54.059Z,61.88
2022-09-14T09:50:54.045Z,61.88
2022-09-14T09:51:54.066Z,67.50
2022-09-14T09:52:54.024Z,67.50
2022-09-14T09:53:54.018Z,61.88
2022-09-14T09:54:53.998Z,61.88
2022-09-14T09:55:53.988Z,56.25
2022-09-14T09:56:53.981Z,61.88
2022-09-14T09:57:53.997Z,50.62
2022-09-14T09:58:53.963Z,50.62
2022-09-14T09:59:53.949Z,50.62
2022-09-14T10:00:53.997Z,95.62
2022-09-14T10:01:53.966Z,56.25
2022-09-14T10:02:53.918Z,56.25
2022-09-14T10:03:53.929Z,56.25
2022-09-14T10:04:53.901Z,50.62
2022-09-14T10:05:53.881Z,39.38
2022-09-14T10:06:53.872Z,33.75
2022-09-14T10:07:53.865Z,39.38
2022-09-14T10:08:53.842Z,45.00
2022-09-14T10:09:53.863Z,45.00
2022-09-14T10:10:53.823Z,45.00
2022-09-14T10:11:53.823Z,45.00
2022-09-14T10:12:53.815Z,50.62
2022-09-14T10:13:53.795Z,61.88
2022-09-14T10:14:53.784Z,90.00
2022-09-14T10:15:54.376Z,67.50
2022-09-14T10:16:53.764Z,61.88
2022-09-14T10:17:53.767Z,118.12
2022-09-14T10:18:54.006Z,50.62
2022-09-14T10:19:53.814Z,45.00
2022-09-14T10:20:53.724Z,33.75
2022-09-14T10:21:53.743Z,28.12
2022-09-14T10:22:53.700Z,28.12
2022-09-14T10:23:53.688Z,28.12
2022-09-14T10:24:53.677Z,33.75
2022-09-14T10:25:53.688Z,123.75
2022-09-14T10:26:53.657Z,123.75
2022-09-14T10:27:53.678Z,118.12
2022-09-14T10:28:53.637Z,112.50
2022-09-14T10:29:53.628Z,118.12
2022-09-14T10:30:53.640Z,118.12
2022-09-14T10:31:53.612Z,129.38
2022-09-14T10:32:53.589Z,123.75
2022-09-14T10:33:53.610Z,129.38
2022-09-14T10:34:53.576Z,123.75
2022-09-14T10:35:53.565Z,112.50
2022-09-14T10:36:53.551Z,78.75
2022-09-14T10:37:53.573Z,56.25
2022-09-14T10:38:53.566Z,50.62
2022-09-14T10:39:53.611Z,39.38
2022-09-14T10:40:53.514Z,33.75
2022-09-14T10:41:53.503Z,28.12
2022-09-14T10:42:53.484Z,22.50
2022-09-14T10:43:53.482Z,22.50
2022-09-14T10:44:53.466Z,22.50
2022-09-14T10:45:53.485Z,16.88
2022-09-14T10:46:53.518Z,16.88
2022-09-14T10:47:53.435Z,11.25
2022-09-14T10:48:53.416Z,16.88
2022-09-14T10:49:53.424Z,16.88
2022-09-14T10:50:53.420Z,11.25
2022-09-14T10:51:53.427Z,11.25
2022-09-14T10:52:53.380Z,11.25
2022-09-14T10:53:53.379Z,16.88
2022-09-14T10:54:54.380Z,16.88
2022-09-14T10:55:53.357Z,16.88
2022-09-14T10:56:53.336Z,22.50
2022-09-14T10:57:53.358Z,22.50
2022-09-14T10:58:53.320Z,22.50
2022-09-14T10:59:53.310Z,22.50
2022-09-14T11:00:53.292Z,28.12
2022-09-14T11:01:53.443Z,28.12
2022-09-14T11:02:53.374Z,28.12
2022-09-14T11:03:53.356Z,33.75
2022-09-14T11:04:53.258Z,45.00
2022-09-14T11:05:53.262Z,106.88
2022-09-14T11:06:53.231Z,73.12
2022-09-14T11:07:53.224Z,90.00
2022-09-14T11:08:53.248Z,95.62
2022-09-14T11:09:53.227Z,84.38
2022-09-14T11:10:53.184Z,67.50
2022-09-14T11:11:53.186Z,56.25
2022-09-14T11:12:53.175Z,61.88
2022-09-14T11:13:53.163Z,67.50
2022-09-14T11:14:53.146Z,61.88
2022-09-14T11:15:53.228Z,61.88
2022-09-14T11:16:53.128Z,90.00
2022-09-14T11:17:53.120Z,67.50
2022-09-14T11:18:53.104Z,78.75
2022-09-14T11:19:53.088Z,61.88
2022-09-14T11:20:53.084Z,50.62
2022-09-14T11:21:53.118Z,45.00
2022-09-14T11:22:53.067Z,39.38
2022-09-14T11:23:53.056Z,33.75
2022-09-14T11:24:53.039Z,33.75
2022-09-14T11:25:53.030Z,33.75
2022-09-14T11:26:53.018Z,39.38
2022-09-14T11:27:53.039Z,45.00
2022-09-14T11:28:53.006Z,45.00
2022-09-14T11:29:52.984Z,45.00
2022-09-14T11:30:53.019Z,45.00
2022-09-14T11:32:16.778Z,45.00
2022-09-14T11:32:53.982Z,45.00
2022-09-14T11:33:52.950Z,50.62
2022-09-14T11:34:52.933Z,50.62
2022-09-14T11:35:52.931Z,50.62
2022-09-14T11:36:52.915Z,50.62
2022-09-14T11:37:52.903Z,56.25
2022-09-14T11:38:52.933Z,56.25
2022-09-14T11:39:52.981Z,61.88
2022-09-14T11:40:52.873Z,67.50
2022-09-14T11:41:52.864Z,90.00
2022-09-14T11:42:52.858Z,101.25
2022-09-14T11:43:52.846Z,73.12
2022-09-14T11:44:52.855Z,84.38
2022-09-14T11:45:52.845Z,90.00
2022-09-14T11:46:52.807Z,90.00
2022-09-14T11:47:52.805Z,90.00
2022-09-14T11:48:52.831Z,90.00
2022-09-14T11:49:52.774Z,78.75
2022-09-14T11:50:52.832Z,78.75
2022-09-14T11:51:52.763Z,73.12
2022-09-14T11:52:52.748Z,90.00
2022-09-14T11:53:52.737Z,61.88
2022-09-14T11:54:52.726Z,56.25
2022-09-14T11:55:52.716Z,50.62
2022-09-14T11:56:52.719Z,45.00
2022-09-14T11:57:52.689Z,39.38
2022-09-14T11:58:52.681Z,33.75
2022-09-14T11:59:52.681Z,28.12
2022-09-14T12:00:52.661Z,22.50
2022-09-14T12:01:52.660Z,22.50
2022-09-14T12:02:52.693Z,22.50
2022-09-14T12:03:52.709Z,22.50
2022-09-14T12:04:52.618Z,22.50
2022-09-14T12:05:52.626Z,22.50
2022-09-14T12:06:52.593Z,22.50
2022-09-14T12:07:52.592Z,22.50
2022-09-14T12:08:52.594Z,22.50
2022-09-14T12:09:52.564Z,39.38
2022-09-14T12:10:52.564Z,151.88
2022-09-14T12:11:52.555Z,140.62
2022-09-14T12:12:52.532Z,73.12
2022-09-14T12:13:52.535Z,157.50
2022-09-14T12:14:52.536Z,151.88
2022-09-14T12:15:52.540Z,106.88
2022-09-14T12:16:52.500Z,106.88
2022-09-14T12:17:52.484Z,118.12
2022-09-14T12:18:52.458Z,45.00
2022-09-14T12:19:52.467Z,112.50
2022-09-14T12:20:52.476Z,61.88
2022-09-14T12:21:52.438Z,50.62
2022-09-14T12:22:52.431Z,61.88
2022-09-14T12:23:52.554Z,61.88
2022-09-14T12:24:52.423Z,112.50
2022-09-14T12:25:52.398Z,56.25
2022-09-14T12:26:52.410Z,50.62
2022-09-14T12:27:52.384Z,118.12
2022-09-14T12:28:52.361Z,50.62
2022-09-14T12:29:52.359Z,39.38
2022-09-14T12:30:52.374Z,33.75
2022-09-14T12:31:52.333Z,33.75
2022-09-14T12:32:52.352Z,33.75
2022-09-14T12:33:52.360Z,33.75
2022-09-14T12:34:52.305Z,28.12
2022-09-14T12:35:52.294Z,28.12
2022-09-14T12:36:52.273Z,22.50
2022-09-14T12:37:52.265Z,22.50
2022-09-14T12:38:52.286Z,28.12
2022-09-14T12:39:52.290Z,28.12
2022-09-14T12:40:52.235Z,33.75
2022-09-14T12:41:52.225Z,33.75
2022-09-14T12:42:52.215Z,33.75
2022-09-14T12:43:52.267Z,33.75
2022-09-14T12:44:52.214Z,28.12
2022-09-14T12:45:52.223Z,28.12
2022-09-14T12:46:52.169Z,28.12
2022-09-14T12:47:52.168Z,22.50
2022-09-14T12:48:52.148Z,22.50
2022-09-14T12:49:52.138Z,22.50
2022-09-14T12:50:52.159Z,22.50
2022-09-14T12:51:52.127Z,22.50
2022-09-14T12:52:52.109Z,28.12
2022-09-14T12:53:52.099Z,45.00
2022-09-14T12:54:52.091Z,50.62
2022-09-14T12:55:52.078Z,45.00
2022-09-14T12:56:52.094Z,45.00
2022-09-14T12:57:52.059Z,39.38
2022-09-14T12:58:52.050Z,39.38
2022-09-14T12:59:52.033Z,39.38
2022-09-14T13:00:52.024Z,39.38
2022-09-14T13:01:52.121Z,39.38
2022-09-14T13:02:52.078Z,39.38